sensor_id;sensor_type;location;lat;lon;timestamp;temperature;humidity
45060;DHT22;30799;49.060;9.312;2022-09-02T00:01:53;23.80;59.00
45060;DHT22;30799;49.060;9.312;2022-09-02T00:04:23;23.80;58.90
45060;DHT22;30799;49.060;9.312;2022-09-02T00:06:51;23.80;58.90
45060;DHT22;30799;49.060;9.312;2022-09-02T00:09:21;23.80;58.90
45060;DHT22;30799;49.060;9.312;2022-09-02T00:11:49;23.80;58.90
45060;DHT22;30799;49.060;9.312;2022-09-02T00:14:21;23.80;58.90
45060;DHT22;30799;49.060;9.312;2022-09-02T00:16:48;23.80;58.90
45060;DHT22;30799;49.060;9.312;2022-09-02T00:19:22;23.80;58.90
45060;DHT22;30799;49.060;9.312;2022-09-02T00:21:50;23.80;58.90
45060;DHT22;30799;49.060;9.312;2022-09-02T00:24:17;23.80;58.90
45060;DHT22;30799;49.060;9.312;2022-09-02T00:26:45;23.80;58.90
45060;DHT22;30799;49.060;9.312;2022-09-02T00:29:12;23.80;58.80
45060;DHT22;30799;49.060;9.312;2022-09-02T00:31:45;23.80;58.80
45060;DHT22;30799;49.060;9.312;2022-09-02T00:34:12;23.80;58.80
45060;DHT22;30799;49.060;9.312;2022-09-02T00:36:39;23.80;58.70
45060;DHT22;30799;49.060;9.312;2022-09-02T00:39:07;23.80;58.70
45060;DHT22;30799;49.060;9.312;2022-09-02T00:41:36;23.80;58.70
45060;DHT22;30799;49.060;9.312;2022-09-02T00:44:06;23.80;58.70
45060;DHT22;30799;49.060;9.312;2022-09-02T00:46:34;23.80;58.70
45060;DHT22;30799;49.060;9.312;2022-09-02T00:49:11;23.80;58.70
45060;DHT22;30799;49.060;9.312;2022-09-02T00:54:12;23.80;58.70
45060;DHT22;30799;49.060;9.312;2022-09-02T00:56:41;23.80;58.60
45060;DHT22;30799;49.060;9.312;2022-09-02T00:59:14;23.80;58.70
45060;DHT22;30799;49.060;9.312;2022-09-02T01:01:43;23.80;58.70
45060;DHT22;30799;49.060;9.312;2022-09-02T01:04:11;23.80;58.60
45060;DHT22;30799;49.060;9.312;2022-09-02T01:06:38;23.80;58.60
45060;DHT22;30799;49.060;9.312;2022-09-02T01:09:10;23.80;58.60
45060;DHT22;30799;49.060;9.312;2022-09-02T01:11:41;23.80;58.60
45060;DHT22;30799;49.060;9.312;2022-09-02T01:14:08;23.80;58.60
45060;DHT22;30799;49.060;9.312;2022-09-02T01:16:45;23.80;58.50
45060;DHT22;30799;49.060;9.312;2022-09-02T01:19:32;23.80;58.50
45060;DHT22;30799;49.060;9.312;2022-09-02T01:22:00;23.80;58.50
45060;DHT22;30799;49.060;9.312;2022-09-02T01:24:29;23.80;58.50
45060;DHT22;30799;49.060;9.312;2022-09-02T01:26:57;23.80;58.50
45060;DHT22;30799;49.060;9.312;2022-09-02T01:29:25;23.80;58.50
45060;DHT22;30799;49.060;9.312;2022-09-02T01:31:52;23.80;58.50
45060;DHT22;30799;49.060;9.312;2022-09-02T01:34:19;23.80;58.50
45060;DHT22;30799;49.060;9.312;2022-09-02T01:36:46;23.80;58.50
45060;DHT22;30799;49.060;9.312;2022-09-02T01:39:13;23.80;58.50
45060;DHT22;30799;49.060;9.312;2022-09-02T01:41:40;23.80;58.40
45060;DHT22;30799;49.060;9.312;2022-09-02T01:44:07;23.80;58.40
45060;DHT22;30799;49.060;9.312;2022-09-02T01:46:34;23.80;58.40
45060;DHT22;30799;49.060;9.312;2022-09-02T01:49:02;23.80;58.40
45060;DHT22;30799;49.060;9.312;2022-09-02T01:51:29;23.80;58.40
45060;DHT22;30799;49.060;9.312;2022-09-02T01:53:56;23.80;58.40
45060;DHT22;30799;49.060;9.312;2022-09-02T01:56:23;23.70;58.40
45060;DHT22;30799;49.060;9.312;2022-09-02T01:58:49;23.80;58.30
45060;DHT22;30799;49.060;9.312;2022-09-02T02:01:18;23.80;58.30
45060;DHT22;30799;49.060;9.312;2022-09-02T02:03:45;23.80;58.30
45060;DHT22;30799;49.060;9.312;2022-09-02T02:06:15;23.70;58.30
45060;DHT22;30799;49.060;9.312;2022-09-02T02:08:43;23.80;58.30
45060;DHT22;30799;49.060;9.312;2022-09-02T02:11:10;23.80;58.30
45060;DHT22;30799;49.060;9.312;2022-09-02T02:13:37;23.80;58.30
45060;DHT22;30799;49.060;9.312;2022-09-02T02:16:05;23.80;58.30
45060;DHT22;30799;49.060;9.312;2022-09-02T02:18:32;23.80;58.20
45060;DHT22;30799;49.060;9.312;2022-09-02T02:20:58;23.80;58.20
45060;DHT22;30799;49.060;9.312;2022-09-02T02:23:25;23.80;58.20
45060;DHT22;30799;49.060;9.312;2022-09-02T02:25:52;23.70;58.20
45060;DHT22;30799;49.060;9.312;2022-09-02T02:28:18;23.80;58.20
45060;DHT22;30799;49.060;9.312;2022-09-02T02:30:45;23.70;58.20
45060;DHT22;30799;49.060;9.312;2022-09-02T02:33:12;23.70;58.20
45060;DHT22;30799;49.060;9.312;2022-09-02T02:35:40;23.70;58.20
45060;DHT22;30799;49.060;9.312;2022-09-02T02:38:07;23.70;58.20
45060;DHT22;30799;49.060;9.312;2022-09-02T02:40:39;23.70;58.10
45060;DHT22;30799;49.060;9.312;2022-09-02T02:43:06;23.70;58.10
45060;DHT22;30799;49.060;9.312;2022-09-02T02:45:33;23.70;58.10
45060;DHT22;30799;49.060;9.312;2022-09-02T02:47:59;23.70;58.10
45060;DHT22;30799;49.060;9.312;2022-09-02T02:50:26;23.70;58.10
45060;DHT22;30799;49.060;9.312;2022-09-02T02:52:53;23.70;58.10
45060;DHT22;30799;49.060;9.312;2022-09-02T02:55:22;23.70;58.10
45060;DHT22;30799;49.060;9.312;2022-09-02T02:57:50;23.70;58.10
45060;DHT22;30799;49.060;9.312;2022-09-02T03:00:23;23.80;58.10
45060;DHT22;30799;49.060;9.312;2022-09-02T03:02:54;23.70;58.10
45060;DHT22;30799;49.060;9.312;2022-09-02T03:05:21;23.70;58.00
45060;DHT22;30799;49.060;9.312;2022-09-02T03:07:48;23.70;58.00
45060;DHT22;30799;49.060;9.312;2022-09-02T03:10:14;23.70;58.00
45060;DHT22;30799;49.060;9.312;2022-09-02T03:12:41;23.70;58.00
45060;DHT22;30799;49.060;9.312;2022-09-02T03:15:14;23.70;58.00
45060;DHT22;30799;49.060;9.312;2022-09-02T03:17:43;23.70;58.00
45060;DHT22;30799;49.060;9.312;2022-09-02T03:20:11;23.70;58.00
45060;DHT22;30799;49.060;9.312;2022-09-02T03:22:38;23.70;58.00
45060;DHT22;30799;49.060;9.312;2022-09-02T03:25:07;23.70;57.90
45060;DHT22;30799;49.060;9.312;2022-09-02T03:27:36;23.70;57.90
45060;DHT22;30799;49.060;9.312;2022-09-02T03:30:08;23.70;57.90
45060;DHT22;30799;49.060;9.312;2022-09-02T03:32:36;23.70;57.90
45060;DHT22;30799;49.060;9.312;2022-09-02T03:35:04;23.70;57.90
45060;DHT22;30799;49.060;9.312;2022-09-02T03:37:34;23.70;57.90
45060;DHT22;30799;49.060;9.312;2022-09-02T03:40:03;23.70;57.90
45060;DHT22;30799;49.060;9.312;2022-09-02T03:42:31;23.70;57.90
45060;DHT22;30799;49.060;9.312;2022-09-02T03:44:57;23.70;57.80
45060;DHT22;30799;49.060;9.312;2022-09-02T03:47:25;23.70;57.80
45060;DHT22;30799;49.060;9.312;2022-09-02T03:49:54;23.70;57.80
45060;DHT22;30799;49.060;9.312;2022-09-02T03:52:21;23.70;57.80
45060;DHT22;30799;49.060;9.312;2022-09-02T03:54:48;23.70;57.80
45060;DHT22;30799;49.060;9.312;2022-09-02T03:57:15;23.70;57.80
45060;DHT22;30799;49.060;9.312;2022-09-02T03:59:42;23.70;57.80
45060;DHT22;30799;49.060;9.312;2022-09-02T04:02:09;23.70;57.80
45060;DHT22;30799;49.060;9.312;2022-09-02T04:04:36;23.70;57.80
45060;DHT22;30799;49.060;9.312;2022-09-02T04:07:02;23.70;57.80
45060;DHT22;30799;49.060;9.312;2022-09-02T04:09:29;23.70;57.80
45060;DHT22;30799;49.060;9.312;2022-09-02T04:11:56;23.70;57.80
45060;DHT22;30799;49.060;9.312;2022-09-02T04:14:23;23.70;57.70
45060;DHT22;30799;49.060;9.312;2022-09-02T04:16:49;23.70;57.70
45060;DHT22;30799;49.060;9.312;2022-09-02T04:19:16;23.70;57.70
45060;DHT22;30799;49.060;9.312;2022-09-02T04:21:43;23.70;57.70
45060;DHT22;30799;49.060;9.312;2022-09-02T04:24:10;23.70;57.60
45060;DHT22;30799;49.060;9.312;2022-09-02T04:26:38;23.70;57.70
45060;DHT22;30799;49.060;9.312;2022-09-02T04:29:10;23.70;57.70
45060;DHT22;30799;49.060;9.312;2022-09-02T04:31:37;23.70;57.60
45060;DHT22;30799;49.060;9.312;2022-09-02T04:34:04;23.70;57.60
45060;DHT22;30799;49.060;9.312;2022-09-02T04:36:32;23.70;57.60
45060;DHT22;30799;49.060;9.312;2022-09-02T04:38:59;23.70;57.60
45060;DHT22;30799;49.060;9.312;2022-09-02T04:41:28;23.60;57.60
45060;DHT22;30799;49.060;9.312;2022-09-02T04:43:57;23.60;57.50
45060;DHT22;30799;49.060;9.312;2022-09-02T04:46:25;23.70;57.60
45060;DHT22;30799;49.060;9.312;2022-09-02T04:49:01;23.70;57.60
45060;DHT22;30799;49.060;9.312;2022-09-02T04:51:28;23.60;57.50
45060;DHT22;30799;49.060;9.312;2022-09-02T04:53:55;23.70;57.50
45060;DHT22;30799;49.060;9.312;2022-09-02T04:56:25;23.60;57.50
45060;DHT22;30799;49.060;9.312;2022-09-02T04:58:53;23.60;57.50
45060;DHT22;30799;49.060;9.312;2022-09-02T05:01:23;23.60;57.40
45060;DHT22;30799;49.060;9.312;2022-09-02T05:03:51;23.60;57.40
45060;DHT22;30799;49.060;9.312;2022-09-02T05:06:21;23.60;57.40
45060;DHT22;30799;49.060;9.312;2022-09-02T05:08:48;23.60;57.40
45060;DHT22;30799;49.060;9.312;2022-09-02T05:11:18;23.60;57.40
45060;DHT22;30799;49.060;9.312;2022-09-02T05:13:50;23.60;57.40
45060;DHT22;30799;49.060;9.312;2022-09-02T05:16:20;23.60;57.40
45060;DHT22;30799;49.060;9.312;2022-09-02T05:18:48;23.60;57.40
45060;DHT22;30799;49.060;9.312;2022-09-02T05:21:15;23.60;58.00
45060;DHT22;30799;49.060;9.312;2022-09-02T05:23:42;23.60;57.40
45060;DHT22;30799;49.060;9.312;2022-09-02T05:26:11;23.60;57.40
45060;DHT22;30799;49.060;9.312;2022-09-02T05:28:39;23.60;57.40
45060;DHT22;30799;49.060;9.312;2022-09-02T05:31:09;23.60;57.40
45060;DHT22;30799;49.060;9.312;2022-09-02T05:33:37;23.70;57.40
45060;DHT22;30799;49.060;9.312;2022-09-02T05:36:08;23.60;57.40
45060;DHT22;30799;49.060;9.312;2022-09-02T05:38:35;23.60;57.30
45060;DHT22;30799;49.060;9.312;2022-09-02T05:41:06;23.60;57.30
45060;DHT22;30799;49.060;9.312;2022-09-02T05:43:37;23.60;57.30
45060;DHT22;30799;49.060;9.312;2022-09-02T05:46:05;23.60;57.30
45060;DHT22;30799;49.060;9.312;2022-09-02T05:48:34;23.60;57.30
45060;DHT22;30799;49.060;9.312;2022-09-02T05:51:20;23.60;57.30
45060;DHT22;30799;49.060;9.312;2022-09-02T05:53:47;23.60;57.30
45060;DHT22;30799;49.060;9.312;2022-09-02T05:56:13;23.60;57.30
45060;DHT22;30799;49.060;9.312;2022-09-02T05:58:40;23.60;57.30
45060;DHT22;30799;49.060;9.312;2022-09-02T06:01:09;23.60;57.40
45060;DHT22;30799;49.060;9.312;2022-09-02T06:03:36;23.60;57.30
45060;DHT22;30799;49.060;9.312;2022-09-02T06:06:04;23.60;57.30
45060;DHT22;30799;49.060;9.312;2022-09-02T06:08:33;23.60;57.30
45060;DHT22;30799;49.060;9.312;2022-09-02T06:11:00;23.60;57.30
45060;DHT22;30799;49.060;9.312;2022-09-02T06:13:29;23.60;57.30
45060;DHT22;30799;49.060;9.312;2022-09-02T06:15:56;23.60;57.30
45060;DHT22;30799;49.060;9.312;2022-09-02T06:18:23;23.60;57.30
45060;DHT22;30799;49.060;9.312;2022-09-02T06:20:52;23.60;57.30
45060;DHT22;30799;49.060;9.312;2022-09-02T06:23:19;23.60;57.30
45060;DHT22;30799;49.060;9.312;2022-09-02T06:25:48;23.60;57.30
45060;DHT22;30799;49.060;9.312;2022-09-02T06:28:15;23.60;57.30
45060;DHT22;30799;49.060;9.312;2022-09-02T06:30:44;23.60;57.30
45060;DHT22;30799;49.060;9.312;2022-09-02T06:33:11;23.60;57.30
45060;DHT22;30799;49.060;9.312;2022-09-02T06:35:41;23.60;57.30
45060;DHT22;30799;49.060;9.312;2022-09-02T06:38:09;23.60;57.20
45060;DHT22;30799;49.060;9.312;2022-09-02T06:40:51;23.60;57.20
45060;DHT22;30799;49.060;9.312;2022-09-02T06:43:19;23.60;57.20
45060;DHT22;30799;49.060;9.312;2022-09-02T06:45:46;23.60;57.20
45060;DHT22;30799;49.060;9.312;2022-09-02T06:48:13;23.60;57.20
45060;DHT22;30799;49.060;9.312;2022-09-02T06:50:44;23.60;57.20
45060;DHT22;30799;49.060;9.312;2022-09-02T06:53:11;23.60;57.20
45060;DHT22;30799;49.060;9.312;2022-09-02T06:55:42;23.60;57.20
45060;DHT22;30799;49.060;9.312;2022-09-02T06:58:09;23.60;57.20
45060;DHT22;30799;49.060;9.312;2022-09-02T07:00:38;23.60;57.20
45060;DHT22;30799;49.060;9.312;2022-09-02T07:03:05;23.60;57.20
45060;DHT22;30799;49.060;9.312;2022-09-02T07:06:09;23.60;57.20
45060;DHT22;30799;49.060;9.312;2022-09-02T07:08:37;23.60;57.20
45060;DHT22;30799;49.060;9.312;2022-09-02T07:11:06;23.60;57.20
45060;DHT22;30799;49.060;9.312;2022-09-02T07:13:33;23.60;57.10
45060;DHT22;30799;49.060;9.312;2022-09-02T07:16:00;23.60;57.20
45060;DHT22;30799;49.060;9.312;2022-09-02T07:18:27;23.60;57.20
45060;DHT22;30799;49.060;9.312;2022-09-02T07:20:54;23.60;57.20
45060;DHT22;30799;49.060;9.312;2022-09-02T07:23:21;23.60;57.10
45060;DHT22;30799;49.060;9.312;2022-09-02T07:25:47;23.60;57.10
45060;DHT22;30799;49.060;9.312;2022-09-02T07:28:14;23.60;57.10
45060;DHT22;30799;49.060;9.312;2022-09-02T07:30:42;23.60;57.10
45060;DHT22;30799;49.060;9.312;2022-09-02T07:33:10;23.60;57.10
45060;DHT22;30799;49.060;9.312;2022-09-02T07:35:40;23.60;57.10
45060;DHT22;30799;49.060;9.312;2022-09-02T07:38:09;23.60;57.10
45060;DHT22;30799;49.060;9.312;2022-09-02T07:40:36;23.60;57.10
45060;DHT22;30799;49.060;9.312;2022-09-02T07:43:05;23.60;57.10
45060;DHT22;30799;49.060;9.312;2022-09-02T07:45:33;23.60;57.10
45060;DHT22;30799;49.060;9.312;2022-09-02T07:48:00;23.60;57.00
45060;DHT22;30799;49.060;9.312;2022-09-02T07:50:27;23.60;57.00
45060;DHT22;30799;49.060;9.312;2022-09-02T07:52:56;23.60;57.00
45060;DHT22;30799;49.060;9.312;2022-09-02T07:55:24;23.60;57.00
45060;DHT22;30799;49.060;9.312;2022-09-02T07:57:51;23.60;57.00
45060;DHT22;30799;49.060;9.312;2022-09-02T08:00:21;23.60;57.00
45060;DHT22;30799;49.060;9.312;2022-09-02T08:02:48;23.60;57.00
45060;DHT22;30799;49.060;9.312;2022-09-02T08:05:15;23.60;57.00
45060;DHT22;30799;49.060;9.312;2022-09-02T08:07:42;23.60;57.00
45060;DHT22;30799;49.060;9.312;2022-09-02T08:10:09;23.60;57.50
45060;DHT22;30799;49.060;9.312;2022-09-02T08:12:40;23.60;56.90
45060;DHT22;30799;49.060;9.312;2022-09-02T08:15:08;23.60;56.90
45060;DHT22;30799;49.060;9.312;2022-09-02T08:17:36;23.60;57.00
45060;DHT22;30799;49.060;9.312;2022-09-02T08:20:07;23.60;57.00
45060;DHT22;30799;49.060;9.312;2022-09-02T08:22:38;23.60;57.00
45060;DHT22;30799;49.060;9.312;2022-09-02T08:25:05;23.60;57.00
45060;DHT22;30799;49.060;9.312;2022-09-02T08:27:31;23.60;57.00
45060;DHT22;30799;49.060;9.312;2022-09-02T08:29:59;23.60;57.00
45060;DHT22;30799;49.060;9.312;2022-09-02T08:32:28;23.60;57.00
45060;DHT22;30799;49.060;9.312;2022-09-02T08:34:54;23.60;57.00
45060;DHT22;30799;49.060;9.312;2022-09-02T08:37:21;23.60;57.00
45060;DHT22;30799;49.060;9.312;2022-09-02T08:39:48;23.60;57.00
45060;DHT22;30799;49.060;9.312;2022-09-02T08:42:22;23.60;57.00
45060;DHT22;30799;49.060;9.312;2022-09-02T08:44:52;23.60;57.00
45060;DHT22;30799;49.060;9.312;2022-09-02T08:47:26;23.70;57.00
45060;DHT22;30799;49.060;9.312;2022-09-02T08:50:08;23.70;57.10
45060;DHT22;30799;49.060;9.312;2022-09-02T08:52:41;23.60;57.00
45060;DHT22;30799;49.060;9.312;2022-09-02T08:55:18;23.70;57.00
45060;DHT22;30799;49.060;9.312;2022-09-02T08:57:47;23.60;57.00
45060;DHT22;30799;49.060;9.312;2022-09-02T09:00:15;23.70;57.00
45060;DHT22;30799;49.060;9.312;2022-09-02T09:03:01;23.70;57.00
45060;DHT22;30799;49.060;9.312;2022-09-02T09:08:37;23.70;57.00
45060;DHT22;30799;49.060;9.312;2022-09-02T09:11:32;23.70;57.00
45060;DHT22;30799;49.060;9.312;2022-09-02T09:14:08;23.60;56.90
45060;DHT22;30799;49.060;9.312;2022-09-02T09:16:52;23.70;56.90
45060;DHT22;30799;49.060;9.312;2022-09-02T09:19:39;23.70;56.90
45060;DHT22;30799;49.060;9.312;2022-09-02T09:22:12;23.70;56.90
45060;DHT22;30799;49.060;9.312;2022-09-02T09:24:45;23.70;56.90
45060;DHT22;30799;49.060;9.312;2022-09-02T09:27:17;23.70;56.90
45060;DHT22;30799;49.060;9.312;2022-09-02T09:29:45;23.70;57.00
45060;DHT22;30799;49.060;9.312;2022-09-02T09:35:06;23.70;56.70
45060;DHT22;30799;49.060;9.312;2022-09-02T09:37:37;23.70;56.60
45060;DHT22;30799;49.060;9.312;2022-09-02T09:45:28;23.70;56.40
45060;DHT22;30799;49.060;9.312;2022-09-02T09:48:24;23.60;56.90
45060;DHT22;30799;49.060;9.312;2022-09-02T09:53:24;23.70;56.20
45060;DHT22;30799;49.060;9.312;2022-09-02T09:58:26;23.70;56.30
45060;DHT22;30799;49.060;9.312;2022-09-02T10:00:55;23.60;56.10
45060;DHT22;30799;49.060;9.312;2022-09-02T10:03:27;23.60;56.00
45060;DHT22;30799;49.060;9.312;2022-09-02T10:06:16;23.70;56.10
45060;DHT22;30799;49.060;9.312;2022-09-02T10:08:57;23.70;56.20
45060;DHT22;30799;49.060;9.312;2022-09-02T10:11:29;23.70;56.20
45060;DHT22;30799;49.060;9.312;2022-09-02T10:14:05;23.70;56.20
45060;DHT22;30799;49.060;9.312;2022-09-02T10:16:41;23.70;56.10
45060;DHT22;30799;49.060;9.312;2022-09-02T10:22:35;23.70;56.00
45060;DHT22;30799;49.060;9.312;2022-09-02T10:33:27;23.70;56.40
45060;DHT22;30799;49.060;9.312;2022-09-02T10:36:23;23.70;56.30
45060;DHT22;30799;49.060;9.312;2022-09-02T10:41:41;23.70;56.30
45060;DHT22;30799;49.060;9.312;2022-09-02T10:44:19;23.70;56.10
45060;DHT22;30799;49.060;9.312;2022-09-02T10:47:10;23.70;56.00
45060;DHT22;30799;49.060;9.312;2022-09-02T10:49:46;23.70;56.20
45060;DHT22;30799;49.060;9.312;2022-09-02T10:55:14;23.70;56.30
45060;DHT22;30799;49.060;9.312;2022-09-02T10:58:00;23.70;56.20
45060;DHT22;30799;49.060;9.312;2022-09-02T11:00:30;23.70;56.30
45060;DHT22;30799;49.060;9.312;2022-09-02T11:03:05;23.70;56.30
45060;DHT22;30799;49.060;9.312;2022-09-02T11:06:02;23.70;56.20
45060;DHT22;30799;49.060;9.312;2022-09-02T11:08:38;23.70;55.80
45060;DHT22;30799;49.060;9.312;2022-09-02T11:11:16;23.70;55.90
45060;DHT22;30799;49.060;9.312;2022-09-02T11:17:08;23.70;56.00
45060;DHT22;30799;49.060;9.312;2022-09-02T11:19:48;23.70;56.00
45060;DHT22;30799;49.060;9.312;2022-09-02T11:22:39;23.70;55.90
45060;DHT22;30799;49.060;9.312;2022-09-02T11:25:14;23.70;55.80
45060;DHT22;30799;49.060;9.312;2022-09-02T11:27:48;23.70;55.80
45060;DHT22;30799;49.060;9.312;2022-09-02T11:30:23;23.70;55.80
45060;DHT22;30799;49.060;9.312;2022-09-02T11:35:36;23.70;55.60
45060;DHT22;30799;49.060;9.312;2022-09-02T11:38:34;23.70;55.70
45060;DHT22;30799;49.060;9.312;2022-09-02T11:44:00;23.70;55.90
45060;DHT22;30799;49.060;9.312;2022-09-02T11:54:35;23.70;55.90
45060;DHT22;30799;49.060;9.312;2022-09-02T11:57:04;23.70;56.00
45060;DHT22;30799;49.060;9.312;2022-09-02T12:02:40;23.70;56.10
45060;DHT22;30799;49.060;9.312;2022-09-02T12:08:11;23.70;56.00
45060;DHT22;30799;49.060;9.312;2022-09-02T12:13:37;23.70;56.00
45060;DHT22;30799;49.060;9.312;2022-09-02T12:21:26;23.70;56.20
45060;DHT22;30799;49.060;9.312;2022-09-02T12:26:23;23.70;56.20
45060;DHT22;30799;49.060;9.312;2022-09-02T12:28:52;23.80;56.20
45060;DHT22;30799;49.060;9.312;2022-09-02T12:31:41;23.70;56.20
45060;DHT22;30799;49.060;9.312;2022-09-02T12:36:58;23.80;56.30
45060;DHT22;30799;49.060;9.312;2022-09-02T12:45:08;23.80;56.30
45060;DHT22;30799;49.060;9.312;2022-09-02T12:50:49;23.70;56.20
45060;DHT22;30799;49.060;9.312;2022-09-02T12:58:37;23.80;56.30
45060;DHT22;30799;49.060;9.312;2022-09-02T13:09:57;23.80;56.30
45060;DHT22;30799;49.060;9.312;2022-09-02T13:18:54;23.80;56.30
45060;DHT22;30799;49.060;9.312;2022-09-02T13:24:01;23.80;56.30
45060;DHT22;30799;49.060;9.312;2022-09-02T13:32:25;23.80;56.30
45060;DHT22;30799;49.060;9.312;2022-09-02T13:34:55;23.80;56.30
45060;DHT22;30799;49.060;9.312;2022-09-02T13:37:37;23.80;56.30
45060;DHT22;30799;49.060;9.312;2022-09-02T13:42:47;23.80;56.30
45060;DHT22;30799;49.060;9.312;2022-09-02T13:45:19;23.80;56.40
45060;DHT22;30799;49.060;9.312;2022-09-02T13:47:51;23.80;56.30
45060;DHT22;30799;49.060;9.312;2022-09-02T13:50:21;23.80;56.30
45060;DHT22;30799;49.060;9.312;2022-09-02T13:52:59;23.80;56.40
45060;DHT22;30799;49.060;9.312;2022-09-02T13:55:51;23.80;56.30
45060;DHT22;30799;49.060;9.312;2022-09-02T14:00:56;23.80;56.40
45060;DHT22;30799;49.060;9.312;2022-09-02T14:03:28;23.80;56.40
45060;DHT22;30799;49.060;9.312;2022-09-02T14:05:58;23.80;56.30
45060;DHT22;30799;49.060;9.312;2022-09-02T14:08:25;23.80;56.30
45060;DHT22;30799;49.060;9.312;2022-09-02T14:10:54;23.80;56.30
45060;DHT22;30799;49.060;9.312;2022-09-02T14:13:21;23.80;56.30
45060;DHT22;30799;49.060;9.312;2022-09-02T14:15:49;23.80;56.30
45060;DHT22;30799;49.060;9.312;2022-09-02T14:18:20;23.90;56.30
45060;DHT22;30799;49.060;9.312;2022-09-02T14:23:17;23.80;56.30
45060;DHT22;30799;49.060;9.312;2022-09-02T14:25:56;23.90;56.30
45060;DHT22;30799;49.060;9.312;2022-09-02T14:28:32;23.80;56.30
45060;DHT22;30799;49.060;9.312;2022-09-02T14:31:06;23.90;56.30
45060;DHT22;30799;49.060;9.312;2022-09-02T14:33:42;23.90;56.30
45060;DHT22;30799;49.060;9.312;2022-09-02T14:43:54;23.90;56.30
45060;DHT22;30799;49.060;9.312;2022-09-02T14:49:08;23.90;56.20
45060;DHT22;30799;49.060;9.312;2022-09-02T14:51:45;23.90;56.30
45060;DHT22;30799;49.060;9.312;2022-09-02T14:54:51;23.90;56.30
45060;DHT22;30799;49.060;9.312;2022-09-02T14:57:30;23.90;56.30
45060;DHT22;30799;49.060;9.312;2022-09-02T15:00:02;23.90;56.30
45060;DHT22;30799;49.060;9.312;2022-09-02T15:02:32;23.90;56.20
45060;DHT22;30799;49.060;9.312;2022-09-02T15:05:02;23.90;56.30
45060;DHT22;30799;49.060;9.312;2022-09-02T15:07:29;23.90;56.30
45060;DHT22;30799;49.060;9.312;2022-09-02T15:09:56;23.90;56.30
45060;DHT22;30799;49.060;9.312;2022-09-02T15:12:27;23.90;56.30
45060;DHT22;30799;49.060;9.312;2022-09-02T15:14:57;23.90;56.30
45060;DHT22;30799;49.060;9.312;2022-09-02T15:17:25;23.90;56.30
45060;DHT22;30799;49.060;9.312;2022-09-02T15:19:51;23.90;56.30
45060;DHT22;30799;49.060;9.312;2022-09-02T15:22:19;23.90;56.20
45060;DHT22;30799;49.060;9.312;2022-09-02T15:24:45;23.90;56.20
45060;DHT22;30799;49.060;9.312;2022-09-02T15:27:14;23.90;56.20
45060;DHT22;30799;49.060;9.312;2022-09-02T15:29:46;23.90;56.20
45060;DHT22;30799;49.060;9.312;2022-09-02T15:32:13;23.90;56.20
45060;DHT22;30799;49.060;9.312;2022-09-02T15:34:40;23.90;56.30
45060;DHT22;30799;49.060;9.312;2022-09-02T15:37:07;23.90;56.30
45060;DHT22;30799;49.060;9.312;2022-09-02T15:39:38;23.90;56.30
45060;DHT22;30799;49.060;9.312;2022-09-02T15:42:05;23.90;56.30
45060;DHT22;30799;49.060;9.312;2022-09-02T15:44:32;23.90;56.30
45060;DHT22;30799;49.060;9.312;2022-09-02T15:46:58;23.90;56.30
45060;DHT22;30799;49.060;9.312;2022-09-02T15:49:25;23.90;56.20
45060;DHT22;30799;49.060;9.312;2022-09-02T15:51:52;23.90;56.20
45060;DHT22;30799;49.060;9.312;2022-09-02T15:54:22;23.90;56.20
45060;DHT22;30799;49.060;9.312;2022-09-02T15:56:54;23.90;56.20
45060;DHT22;30799;49.060;9.312;2022-09-02T15:59:21;23.90;56.20
45060;DHT22;30799;49.060;9.312;2022-09-02T16:01:50;23.90;56.20
45060;DHT22;30799;49.060;9.312;2022-09-02T16:04:17;24.00;56.20
45060;DHT22;30799;49.060;9.312;2022-09-02T16:06:46;23.90;56.20
45060;DHT22;30799;49.060;9.312;2022-09-02T16:09:15;23.90;56.20
45060;DHT22;30799;49.060;9.312;2022-09-02T16:11:50;24.00;56.20
45060;DHT22;30799;49.060;9.312;2022-09-02T16:14:19;24.00;56.20
45060;DHT22;30799;49.060;9.312;2022-09-02T16:16:47;24.00;56.30
45060;DHT22;30799;49.060;9.312;2022-09-02T16:19:17;23.90;56.20
45060;DHT22;30799;49.060;9.312;2022-09-02T16:21:44;24.00;56.20
45060;DHT22;30799;49.060;9.312;2022-09-02T16:24:10;24.00;56.20
45060;DHT22;30799;49.060;9.312;2022-09-02T16:26:38;24.00;56.30
45060;DHT22;30799;49.060;9.312;2022-09-02T16:29:07;24.00;56.20
45060;DHT22;30799;49.060;9.312;2022-09-02T16:31:37;24.00;56.30
45060;DHT22;30799;49.060;9.312;2022-09-02T16:34:14;24.00;56.20
45060;DHT22;30799;49.060;9.312;2022-09-02T16:36:43;24.00;56.30
45060;DHT22;30799;49.060;9.312;2022-09-02T16:39:12;24.00;56.30
45060;DHT22;30799;49.060;9.312;2022-09-02T16:41:44;24.00;56.40
45060;DHT22;30799;49.060;9.312;2022-09-02T16:44:20;24.00;56.40
45060;DHT22;30799;49.060;9.312;2022-09-02T16:46:48;24.00;56.40
45060;DHT22;30799;49.060;9.312;2022-09-02T16:49:16;24.00;56.40
45060;DHT22;30799;49.060;9.312;2022-09-02T16:51:53;24.00;56.40
45060;DHT22;30799;49.060;9.312;2022-09-02T16:54:25;24.00;56.30
45060;DHT22;30799;49.060;9.312;2022-09-02T16:56:58;24.00;56.30
45060;DHT22;30799;49.060;9.312;2022-09-02T16:59:25;24.00;56.40
45060;DHT22;30799;49.060;9.312;2022-09-02T17:01:51;24.00;56.40
45060;DHT22;30799;49.060;9.312;2022-09-02T17:04:18;24.00;56.40
45060;DHT22;30799;49.060;9.312;2022-09-02T17:06:45;23.90;56.30
45060;DHT22;30799;49.060;9.312;2022-09-02T17:09:11;24.00;56.30
45060;DHT22;30799;49.060;9.312;2022-09-02T17:11:38;24.00;56.30
45060;DHT22;30799;49.060;9.312;2022-09-02T17:14:14;24.00;56.30
45060;DHT22;30799;49.060;9.312;2022-09-02T17:16:46;24.00;56.30
45060;DHT22;30799;49.060;9.312;2022-09-02T17:19:14;23.90;56.30
45060;DHT22;30799;49.060;9.312;2022-09-02T17:21:51;24.00;56.30
45060;DHT22;30799;49.060;9.312;2022-09-02T17:24:24;24.00;56.40
45060;DHT22;30799;49.060;9.312;2022-09-02T17:26:53;24.00;56.40
45060;DHT22;30799;49.060;9.312;2022-09-02T17:29:23;24.00;56.30
45060;DHT22;30799;49.060;9.312;2022-09-02T17:32:10;24.00;56.40
45060;DHT22;30799;49.060;9.312;2022-09-02T17:34:37;24.00;56.40
45060;DHT22;30799;49.060;9.312;2022-09-02T17:37:04;24.00;56.30
45060;DHT22;30799;49.060;9.312;2022-09-02T17:39:31;24.00;56.40
45060;DHT22;30799;49.060;9.312;2022-09-02T17:41:59;24.00;56.30
45060;DHT22;30799;49.060;9.312;2022-09-02T17:44:28;23.90;56.30
45060;DHT22;30799;49.060;9.312;2022-09-02T17:47:01;24.00;56.30
45060;DHT22;30799;49.060;9.312;2022-09-02T17:49:28;24.00;56.30
45060;DHT22;30799;49.060;9.312;2022-09-02T17:51:55;24.00;56.30
45060;DHT22;30799;49.060;9.312;2022-09-02T17:54:25;23.90;56.30
45060;DHT22;30799;49.060;9.312;2022-09-02T18:00:01;23.90;56.20
45060;DHT22;30799;49.060;9.312;2022-09-02T18:05:13;23.90;56.20